sensor_id;sensor_type;location;lat;lon;timestamp;P1;durP1;ratioP1;P2;durP2;ratioP2
23123;SDS011;11731;48.592;8.858;2022-08-19T00:01:49;16.03;;;14.33;;
23123;SDS011;11731;48.592;8.858;2022-08-19T00:04:20;17.10;;;14.60;;
23123;SDS011;11731;48.592;8.858;2022-08-19T00:06:49;16.30;;;14.30;;
23123;SDS011;11731;48.592;8.858;2022-08-19T00:09:17;16.17;;;14.33;;
23123;SDS011;11731;48.592;8.858;2022-08-19T00:11:45;17.87;;;14.97;;
23123;SDS011;11731;48.592;8.858;2022-08-19T00:14:13;18.87;;;15.30;;
23123;SDS011;11731;48.592;8.858;2022-08-19T00:16:43;16.37;;;14.30;;
23123;SDS011;11731;48.592;8.858;2022-08-19T00:19:11;16.07;;;14.37;;
23123;SDS011;11731;48.592;8.858;2022-08-19T00:21:40;16.43;;;14.60;;
23123;SDS011;11731;48.592;8.858;2022-08-19T00:24:07;19.37;;;15.83;;
23123;SDS011;11731;48.592;8.858;2022-08-19T00:26:36;20.23;;;16.07;;
23123;SDS011;11731;48.592;8.858;2022-08-19T00:29:04;19.07;;;14.67;;
23123;SDS011;11731;48.592;8.858;2022-08-19T00:31:33;20.23;;;15.03;;
23123;SDS011;11731;48.592;8.858;2022-08-19T00:34:00;17.03;;;14.30;;
23123;SDS011;11731;48.592;8.858;2022-08-19T00:36:28;22.10;;;16.17;;
23123;SDS011;11731;48.592;8.858;2022-08-19T00:38:58;18.40;;;15.80;;
23123;SDS011;11731;48.592;8.858;2022-08-19T00:41:25;18.60;;;15.67;;
23123;SDS011;11731;48.592;8.858;2022-08-19T00:43:56;16.60;;;14.37;;
23123;SDS011;11731;48.592;8.858;2022-08-19T00:46:24;20.60;;;16.77;;
23123;SDS011;11731;48.592;8.858;2022-08-19T00:48:51;18.93;;;15.70;;
23123;SDS011;11731;48.592;8.858;2022-08-19T00:51:18;18.77;;;14.90;;
23123;SDS011;11731;48.592;8.858;2022-08-19T00:53:47;18.97;;;15.27;;
23123;SDS011;11731;48.592;8.858;2022-08-19T00:56:15;17.93;;;15.53;;
23123;SDS011;11731;48.592;8.858;2022-08-19T00:58:43;20.90;;;16.53;;
23123;SDS011;11731;48.592;8.858;2022-08-19T01:01:10;23.23;;;16.77;;
23123;SDS011;11731;48.592;8.858;2022-08-19T01:03:38;18.40;;;15.13;;
23123;SDS011;11731;48.592;8.858;2022-08-19T01:06:06;22.20;;;16.33;;
23123;SDS011;11731;48.592;8.858;2022-08-19T01:08:33;20.90;;;15.77;;
23123;SDS011;11731;48.592;8.858;2022-08-19T01:11:00;20.80;;;16.17;;
23123;SDS011;11731;48.592;8.858;2022-08-19T01:13:30;22.70;;;17.13;;
23123;SDS011;11731;48.592;8.858;2022-08-19T01:16:00;24.33;;;17.40;;
23123;SDS011;11731;48.592;8.858;2022-08-19T01:18:30;21.13;;;17.80;;
23123;SDS011;11731;48.592;8.858;2022-08-19T01:20:59;21.87;;;16.70;;
23123;SDS011;11731;48.592;8.858;2022-08-19T01:23:31;20.13;;;16.53;;
23123;SDS011;11731;48.592;8.858;2022-08-19T01:26:09;21.37;;;17.13;;
23123;SDS011;11731;48.592;8.858;2022-08-19T01:28:37;17.57;;;15.07;;
23123;SDS011;11731;48.592;8.858;2022-08-19T01:31:05;28.17;;;17.17;;
23123;SDS011;11731;48.592;8.858;2022-08-19T01:33:37;22.63;;;17.73;;
23123;SDS011;11731;48.592;8.858;2022-08-19T01:36:05;20.73;;;16.40;;
23123;SDS011;11731;48.592;8.858;2022-08-19T01:38:36;21.10;;;16.80;;
23123;SDS011;11731;48.592;8.858;2022-08-19T01:41:05;21.10;;;16.33;;
23123;SDS011;11731;48.592;8.858;2022-08-19T01:43:32;21.40;;;17.23;;
23123;SDS011;11731;48.592;8.858;2022-08-19T01:45:59;21.27;;;16.70;;
23123;SDS011;11731;48.592;8.858;2022-08-19T01:48:32;22.03;;;17.20;;
23123;SDS011;11731;48.592;8.858;2022-08-19T01:51:00;23.63;;;17.37;;
23123;SDS011;11731;48.592;8.858;2022-08-19T01:53:27;18.77;;;16.17;;
23123;SDS011;11731;48.592;8.858;2022-08-19T01:55:56;19.67;;;16.87;;
23123;SDS011;11731;48.592;8.858;2022-08-19T01:58:24;21.07;;;17.03;;
23123;SDS011;11731;48.592;8.858;2022-08-19T02:00:55;20.33;;;17.07;;
23123;SDS011;11731;48.592;8.858;2022-08-19T02:03:23;21.00;;;17.27;;
23123;SDS011;11731;48.592;8.858;2022-08-19T02:05:53;24.93;;;18.07;;
23123;SDS011;11731;48.592;8.858;2022-08-19T02:08:21;22.80;;;17.70;;
23123;SDS011;11731;48.592;8.858;2022-08-19T02:10:48;22.00;;;18.47;;
23123;SDS011;11731;48.592;8.858;2022-08-19T02:13:17;22.17;;;16.97;;
23123;SDS011;11731;48.592;8.858;2022-08-19T02:15:44;22.93;;;18.70;;
23123;SDS011;11731;48.592;8.858;2022-08-19T02:18:11;26.60;;;18.90;;
23123;SDS011;11731;48.592;8.858;2022-08-19T02:20:39;21.77;;;18.07;;
23123;SDS011;11731;48.592;8.858;2022-08-19T02:23:08;24.37;;;19.43;;
23123;SDS011;11731;48.592;8.858;2022-08-19T02:25:36;23.10;;;18.70;;
23123;SDS011;11731;48.592;8.858;2022-08-19T02:28:04;22.37;;;18.13;;
23123;SDS011;11731;48.592;8.858;2022-08-19T02:30:33;23.83;;;18.03;;
23123;SDS011;11731;48.592;8.858;2022-08-19T02:33:00;25.87;;;19.00;;
23123;SDS011;11731;48.592;8.858;2022-08-19T02:35:27;27.00;;;20.67;;
23123;SDS011;11731;48.592;8.858;2022-08-19T02:37:53;26.47;;;19.37;;
23123;SDS011;11731;48.592;8.858;2022-08-19T02:40:38;24.63;;;19.10;;
23123;SDS011;11731;48.592;8.858;2022-08-19T02:43:06;22.97;;;19.00;;
23123;SDS011;11731;48.592;8.858;2022-08-19T02:45:36;23.60;;;18.83;;
23123;SDS011;11731;48.592;8.858;2022-08-19T02:48:04;23.10;;;18.87;;
23123;SDS011;11731;48.592;8.858;2022-08-19T02:50:32;22.03;;;18.53;;
23123;SDS011;11731;48.592;8.858;2022-08-19T02:52:59;22.80;;;19.13;;
23123;SDS011;11731;48.592;8.858;2022-08-19T02:55:26;25.27;;;18.70;;
23123;SDS011;11731;48.592;8.858;2022-08-19T02:57:53;22.67;;;17.60;;
23123;SDS011;11731;48.592;8.858;2022-08-19T03:00:21;27.17;;;20.70;;
23123;SDS011;11731;48.592;8.858;2022-08-19T03:02:50;26.03;;;19.07;;
23123;SDS011;11731;48.592;8.858;2022-08-19T03:05:17;23.03;;;18.77;;
23123;SDS011;11731;48.592;8.858;2022-08-19T03:07:44;26.33;;;21.03;;
23123;SDS011;11731;48.592;8.858;2022-08-19T03:10:11;24.37;;;19.57;;
23123;SDS011;11731;48.592;8.858;2022-08-19T03:12:39;26.60;;;21.13;;
23123;SDS011;11731;48.592;8.858;2022-08-19T03:15:06;26.00;;;19.50;;
23123;SDS011;11731;48.592;8.858;2022-08-19T03:17:34;25.77;;;19.83;;
23123;SDS011;11731;48.592;8.858;2022-08-19T03:20:02;29.40;;;21.70;;
23123;SDS011;11731;48.592;8.858;2022-08-19T03:22:30;29.80;;;22.70;;
23123;SDS011;11731;48.592;8.858;2022-08-19T03:24:57;28.10;;;21.97;;
23123;SDS011;11731;48.592;8.858;2022-08-19T03:27:24;30.23;;;24.17;;
23123;SDS011;11731;48.592;8.858;2022-08-19T03:29:52;30.53;;;22.80;;
23123;SDS011;11731;48.592;8.858;2022-08-19T03:32:18;29.50;;;22.73;;
23123;SDS011;11731;48.592;8.858;2022-08-19T03:34:47;29.90;;;24.60;;
23123;SDS011;11731;48.592;8.858;2022-08-19T03:37:15;29.40;;;23.83;;
23123;SDS011;11731;48.592;8.858;2022-08-19T03:39:42;33.73;;;24.67;;
23123;SDS011;11731;48.592;8.858;2022-08-19T03:42:09;29.03;;;23.30;;
23123;SDS011;11731;48.592;8.858;2022-08-19T03:44:37;32.60;;;24.53;;
23123;SDS011;11731;48.592;8.858;2022-08-19T03:47:04;31.90;;;22.93;;
23123;SDS011;11731;48.592;8.858;2022-08-19T03:49:31;33.83;;;24.27;;
23123;SDS011;11731;48.592;8.858;2022-08-19T03:52:00;30.13;;;23.77;;
23123;SDS011;11731;48.592;8.858;2022-08-19T03:54:31;34.60;;;23.43;;
23123;SDS011;11731;48.592;8.858;2022-08-19T03:56:58;28.93;;;22.40;;
23123;SDS011;11731;48.592;8.858;2022-08-19T03:59:26;30.57;;;24.27;;
23123;SDS011;11731;48.592;8.858;2022-08-19T04:01:55;31.10;;;23.93;;
23123;SDS011;11731;48.592;8.858;2022-08-19T04:04:23;27.37;;;22.90;;
23123;SDS011;11731;48.592;8.858;2022-08-19T04:06:51;30.37;;;23.90;;
23123;SDS011;11731;48.592;8.858;2022-08-19T04:09:18;31.33;;;24.70;;
23123;SDS011;11731;48.592;8.858;2022-08-19T04:11:48;33.87;;;25.30;;
23123;SDS011;11731;48.592;8.858;2022-08-19T04:14:19;32.60;;;25.37;;
23123;SDS011;11731;48.592;8.858;2022-08-19T04:16:49;30.00;;;23.97;;
23123;SDS011;11731;48.592;8.858;2022-08-19T04:19:17;32.67;;;26.30;;
23123;SDS011;11731;48.592;8.858;2022-08-19T04:21:45;32.93;;;26.40;;
23123;SDS011;11731;48.592;8.858;2022-08-19T04:24:15;38.77;;;27.00;;
23123;SDS011;11731;48.592;8.858;2022-08-19T04:26:44;29.83;;;24.67;;
23123;SDS011;11731;48.592;8.858;2022-08-19T04:29:14;33.23;;;27.57;;
23123;SDS011;11731;48.592;8.858;2022-08-19T04:31:43;32.23;;;26.57;;
23123;SDS011;11731;48.592;8.858;2022-08-19T04:34:12;34.00;;;26.50;;
23123;SDS011;11731;48.592;8.858;2022-08-19T04:36:41;33.40;;;25.37;;
23123;SDS011;11731;48.592;8.858;2022-08-19T04:39:10;34.60;;;26.50;;
23123;SDS011;11731;48.592;8.858;2022-08-19T04:41:38;34.40;;;27.63;;
23123;SDS011;11731;48.592;8.858;2022-08-19T04:44:24;32.03;;;25.90;;
23123;SDS011;11731;48.592;8.858;2022-08-19T04:46:52;33.67;;;26.73;;
23123;SDS011;11731;48.592;8.858;2022-08-19T04:49:19;32.77;;;25.50;;
23123;SDS011;11731;48.592;8.858;2022-08-19T04:51:48;35.23;;;26.03;;
23123;SDS011;11731;48.592;8.858;2022-08-19T04:54:17;37.13;;;27.63;;
23123;SDS011;11731;48.592;8.858;2022-08-19T04:56:47;36.03;;;27.23;;
23123;SDS011;11731;48.592;8.858;2022-08-19T04:59:15;33.63;;;24.60;;
23123;SDS011;11731;48.592;8.858;2022-08-19T05:01:45;36.90;;;25.13;;
23123;SDS011;11731;48.592;8.858;2022-08-19T05:04:15;32.93;;;24.50;;
23123;SDS011;11731;48.592;8.858;2022-08-19T05:06:43;35.17;;;25.60;;
23123;SDS011;11731;48.592;8.858;2022-08-19T05:09:12;34.00;;;26.77;;
23123;SDS011;11731;48.592;8.858;2022-08-19T05:11:39;32.60;;;25.23;;
23123;SDS011;11731;48.592;8.858;2022-08-19T05:14:06;29.23;;;23.83;;
23123;SDS011;11731;48.592;8.858;2022-08-19T05:16:34;34.13;;;25.03;;
23123;SDS011;11731;48.592;8.858;2022-08-19T05:19:02;30.13;;;24.60;;
23123;SDS011;11731;48.592;8.858;2022-08-19T05:21:47;36.80;;;26.30;;
23123;SDS011;11731;48.592;8.858;2022-08-19T05:24:31;31.40;;;24.33;;
23123;SDS011;11731;48.592;8.858;2022-08-19T05:26:59;30.33;;;25.40;;
23123;SDS011;11731;48.592;8.858;2022-08-19T05:29:28;33.97;;;26.17;;
23123;SDS011;11731;48.592;8.858;2022-08-19T05:31:57;35.83;;;26.63;;
23123;SDS011;11731;48.592;8.858;2022-08-19T05:34:26;31.37;;;25.03;;
23123;SDS011;11731;48.592;8.858;2022-08-19T05:36:56;29.50;;;23.97;;
23123;SDS011;11731;48.592;8.858;2022-08-19T05:39:32;31.40;;;25.50;;
23123;SDS011;11731;48.592;8.858;2022-08-19T05:42:03;31.90;;;24.80;;
23123;SDS011;11731;48.592;8.858;2022-08-19T05:44:33;30.10;;;24.87;;
23123;SDS011;11731;48.592;8.858;2022-08-19T05:47:02;29.67;;;23.17;;
23123;SDS011;11731;48.592;8.858;2022-08-19T05:49:32;27.57;;;22.57;;
23123;SDS011;11731;48.592;8.858;2022-08-19T05:52:01;28.40;;;22.40;;
23123;SDS011;11731;48.592;8.858;2022-08-19T05:54:28;28.20;;;22.40;;
23123;SDS011;11731;48.592;8.858;2022-08-19T05:56:56;27.97;;;23.73;;
23123;SDS011;11731;48.592;8.858;2022-08-19T05:59:23;27.10;;;21.97;;
23123;SDS011;11731;48.592;8.858;2022-08-19T06:01:50;28.80;;;22.57;;
23123;SDS011;11731;48.592;8.858;2022-08-19T06:04:19;27.33;;;22.33;;
23123;SDS011;11731;48.592;8.858;2022-08-19T06:06:49;28.40;;;22.03;;
23123;SDS011;11731;48.592;8.858;2022-08-19T06:09:17;33.23;;;23.67;;
23123;SDS011;11731;48.592;8.858;2022-08-19T06:11:46;28.03;;;23.30;;
23123;SDS011;11731;48.592;8.858;2022-08-19T06:14:15;30.33;;;22.50;;
23123;SDS011;11731;48.592;8.858;2022-08-19T06:16:43;28.27;;;23.53;;
23123;SDS011;11731;48.592;8.858;2022-08-19T06:19:11;26.43;;;22.43;;
23123;SDS011;11731;48.592;8.858;2022-08-19T06:21:41;29.37;;;22.03;;
23123;SDS011;11731;48.592;8.858;2022-08-19T06:24:12;25.97;;;21.37;;
23123;SDS011;11731;48.592;8.858;2022-08-19T06:26:41;31.17;;;20.83;;
23123;SDS011;11731;48.592;8.858;2022-08-19T06:29:09;27.97;;;21.80;;
23123;SDS011;11731;48.592;8.858;2022-08-19T06:31:40;26.37;;;21.97;;
23123;SDS011;11731;48.592;8.858;2022-08-19T06:34:08;30.57;;;23.33;;
23123;SDS011;11731;48.592;8.858;2022-08-19T06:36:37;28.30;;;22.77;;
23123;SDS011;11731;48.592;8.858;2022-08-19T06:39:07;25.47;;;20.73;;
23123;SDS011;11731;48.592;8.858;2022-08-19T06:41:38;28.20;;;22.03;;
23123;SDS011;11731;48.592;8.858;2022-08-19T06:44:07;27.10;;;21.30;;
23123;SDS011;11731;48.592;8.858;2022-08-19T06:46:35;29.00;;;23.23;;
23123;SDS011;11731;48.592;8.858;2022-08-19T06:49:03;27.40;;;23.13;;
23123;SDS011;11731;48.592;8.858;2022-08-19T06:51:30;26.13;;;21.73;;
23123;SDS011;11731;48.592;8.858;2022-08-19T06:53:57;28.07;;;22.47;;
23123;SDS011;11731;48.592;8.858;2022-08-19T06:56:25;29.97;;;23.07;;
23123;SDS011;11731;48.592;8.858;2022-08-19T06:58:58;26.63;;;22.23;;
23123;SDS011;11731;48.592;8.858;2022-08-19T07:01:25;27.00;;;20.60;;
23123;SDS011;11731;48.592;8.858;2022-08-19T07:03:52;27.53;;;20.97;;
23123;SDS011;11731;48.592;8.858;2022-08-19T07:06:20;25.93;;;20.27;;
23123;SDS011;11731;48.592;8.858;2022-08-19T07:08:47;29.37;;;21.50;;
23123;SDS011;11731;48.592;8.858;2022-08-19T07:11:15;27.67;;;19.80;;
23123;SDS011;11731;48.592;8.858;2022-08-19T07:13:43;24.27;;;21.47;;
23123;SDS011;11731;48.592;8.858;2022-08-19T07:16:14;23.70;;;19.60;;
23123;SDS011;11731;48.592;8.858;2022-08-19T07:18:44;23.00;;;19.40;;
23123;SDS011;11731;48.592;8.858;2022-08-19T07:21:13;25.00;;;19.03;;
23123;SDS011;11731;48.592;8.858;2022-08-19T07:23:41;21.73;;;18.83;;
23123;SDS011;11731;48.592;8.858;2022-08-19T07:26:11;20.57;;;18.37;;
23123;SDS011;11731;48.592;8.858;2022-08-19T07:28:40;21.77;;;18.70;;
23123;SDS011;11731;48.592;8.858;2022-08-19T07:31:10;25.87;;;18.87;;
23123;SDS011;11731;48.592;8.858;2022-08-19T07:33:40;21.47;;;19.17;;
23123;SDS011;11731;48.592;8.858;2022-08-19T07:36:08;22.30;;;18.63;;
23123;SDS011;11731;48.592;8.858;2022-08-19T07:38:37;19.90;;;17.70;;
23123;SDS011;11731;48.592;8.858;2022-08-19T07:41:06;20.17;;;16.43;;
23123;SDS011;11731;48.592;8.858;2022-08-19T07:43:33;23.63;;;17.40;;
23123;SDS011;11731;48.592;8.858;2022-08-19T07:46:00;24.77;;;18.37;;
23123;SDS011;11731;48.592;8.858;2022-08-19T07:48:29;19.23;;;16.90;;
23123;SDS011;11731;48.592;8.858;2022-08-19T07:50:56;21.73;;;17.63;;
23123;SDS011;11731;48.592;8.858;2022-08-19T07:53:27;21.23;;;17.40;;
23123;SDS011;11731;48.592;8.858;2022-08-19T07:55:56;18.87;;;16.87;;
23123;SDS011;11731;48.592;8.858;2022-08-19T07:58:24;22.40;;;16.33;;
23123;SDS011;11731;48.592;8.858;2022-08-19T08:00:52;20.23;;;15.77;;
23123;SDS011;11731;48.592;8.858;2022-08-19T08:03:19;18.70;;;16.57;;
23123;SDS011;11731;48.592;8.858;2022-08-19T08:06:10;21.23;;;15.87;;
23123;SDS011;11731;48.592;8.858;2022-08-19T08:08:55;20.13;;;15.53;;
23123;SDS011;11731;48.592;8.858;2022-08-19T08:11:46;18.07;;;14.47;;
23123;SDS011;11731;48.592;8.858;2022-08-19T08:14:15;20.07;;;16.13;;
23123;SDS011;11731;48.592;8.858;2022-08-19T08:16:43;17.80;;;16.00;;
23123;SDS011;11731;48.592;8.858;2022-08-19T08:19:11;19.00;;;14.93;;
23123;SDS011;11731;48.592;8.858;2022-08-19T08:21:42;18.03;;;14.73;;
23123;SDS011;11731;48.592;8.858;2022-08-19T08:24:09;17.07;;;15.07;;
23123;SDS011;11731;48.592;8.858;2022-08-19T08:26:37;16.10;;;14.43;;
23123;SDS011;11731;48.592;8.858;2022-08-19T08:29:05;16.47;;;14.17;;
23123;SDS011;11731;48.592;8.858;2022-08-19T08:31:37;20.60;;;14.10;;
23123;SDS011;11731;48.592;8.858;2022-08-19T08:34:04;17.10;;;14.03;;
23123;SDS011;11731;48.592;8.858;2022-08-19T08:36:31;15.20;;;13.60;;
23123;SDS011;11731;48.592;8.858;2022-08-19T08:39:00;18.87;;;13.57;;
23123;SDS011;11731;48.592;8.858;2022-08-19T08:41:28;15.03;;;13.13;;
23123;SDS011;11731;48.592;8.858;2022-08-19T08:44:01;17.73;;;13.77;;
23123;SDS011;11731;48.592;8.858;2022-08-19T08:46:32;15.73;;;12.50;;
23123;SDS011;11731;48.592;8.858;2022-08-19T08:49:06;17.50;;;13.43;;
23123;SDS011;11731;48.592;8.858;2022-08-19T08:51:44;15.20;;;12.47;;
23123;SDS011;11731;48.592;8.858;2022-08-19T08:54:18;13.93;;;12.50;;
23123;SDS011;11731;48.592;8.858;2022-08-19T08:56:46;14.33;;;12.03;;
23123;SDS011;11731;48.592;8.858;2022-08-19T08:59:20;17.50;;;12.73;;
23123;SDS011;11731;48.592;8.858;2022-08-19T09:01:50;14.37;;;12.90;;
23123;SDS011;11731;48.592;8.858;2022-08-19T09:04:17;14.27;;;12.60;;
23123;SDS011;11731;48.592;8.858;2022-08-19T09:06:46;18.77;;;12.53;;
23123;SDS011;11731;48.592;8.858;2022-08-19T09:09:20;17.13;;;12.43;;
23123;SDS011;11731;48.592;8.858;2022-08-19T09:11:59;15.60;;;13.10;;
23123;SDS011;11731;48.592;8.858;2022-08-19T09:14:36;14.27;;;12.33;;
23123;SDS011;11731;48.592;8.858;2022-08-19T09:17:08;13.90;;;12.50;;
23123;SDS011;11731;48.592;8.858;2022-08-19T09:19:36;15.43;;;12.83;;
23123;SDS011;11731;48.592;8.858;2022-08-19T09:22:15;13.30;;;11.80;;
23123;SDS011;11731;48.592;8.858;2022-08-19T09:24:44;16.93;;;12.27;;
23123;SDS011;11731;48.592;8.858;2022-08-19T09:27:11;15.33;;;12.80;;
23123;SDS011;11731;48.592;8.858;2022-08-19T09:29:38;16.90;;;14.50;;
23123;SDS011;11731;48.592;8.858;2022-08-19T09:32:05;15.20;;;12.80;;
23123;SDS011;11731;48.592;8.858;2022-08-19T09:34:32;15.20;;;13.07;;
23123;SDS011;11731;48.592;8.858;2022-08-19T09:36:59;15.10;;;13.50;;
23123;SDS011;11731;48.592;8.858;2022-08-19T09:39:26;16.27;;;13.40;;
23123;SDS011;11731;48.592;8.858;2022-08-19T09:41:54;15.20;;;13.47;;
23123;SDS011;11731;48.592;8.858;2022-08-19T09:44:21;14.70;;;13.30;;
23123;SDS011;11731;48.592;8.858;2022-08-19T09:46:48;15.47;;;13.93;;
23123;SDS011;11731;48.592;8.858;2022-08-19T09:49:16;16.80;;;14.30;;
23123;SDS011;11731;48.592;8.858;2022-08-19T09:51:44;15.47;;;12.27;;
23123;SDS011;11731;48.592;8.858;2022-08-19T09:54:15;15.20;;;13.70;;
23123;SDS011;11731;48.592;8.858;2022-08-19T09:56:41;17.13;;;13.60;;
23123;SDS011;11731;48.592;8.858;2022-08-19T09:59:10;13.77;;;12.40;;
23123;SDS011;11731;48.592;8.858;2022-08-19T10:01:46;14.80;;;13.10;;
23123;SDS011;11731;48.592;8.858;2022-08-19T10:44:52;15.83;;;12.73;;
23123;SDS011;11731;48.592;8.858;2022-08-19T10:45:53;14.00;;;12.50;;
23123;SDS011;11731;48.592;8.858;2022-08-19T10:48:24;14.43;;;11.63;;
23123;SDS011;11731;48.592;8.858;2022-08-19T10:50:51;15.37;;;12.00;;
23123;SDS011;11731;48.592;8.858;2022-08-19T10:53:35;12.63;;;11.10;;
23123;SDS011;11731;48.592;8.858;2022-08-19T10:56:04;12.57;;;11.27;;
23123;SDS011;11731;48.592;8.858;2022-08-19T10:58:49;11.40;;;10.20;;
23123;SDS011;11731;48.592;8.858;2022-08-19T11:01:16;13.07;;;10.50;;
23123;SDS011;11731;48.592;8.858;2022-08-19T11:03:42;12.33;;;11.03;;
23123;SDS011;11731;48.592;8.858;2022-08-19T11:06:10;14.63;;;10.83;;
23123;SDS011;11731;48.592;8.858;2022-08-19T11:08:47;17.63;;;9.97;;
23123;SDS011;11731;48.592;8.858;2022-08-19T11:17:28;15.63;;;10.23;;
23123;SDS011;11731;48.592;8.858;2022-08-19T11:19:57;16.77;;;9.10;;
23123;SDS011;11731;48.592;8.858;2022-08-19T11:22:24;13.57;;;8.47;;
23123;SDS011;11731;48.592;8.858;2022-08-19T11:24:51;13.40;;;8.57;;
23123;SDS011;11731;48.592;8.858;2022-08-19T11:27:20;15.00;;;9.23;;
23123;SDS011;11731;48.592;8.858;2022-08-19T11:29:47;13.03;;;8.87;;
23123;SDS011;11731;48.592;8.858;2022-08-19T11:32:15;10.80;;;8.33;;
23123;SDS011;11731;48.592;8.858;2022-08-19T11:37:35;9.63;;;8.40;;
23123;SDS011;11731;48.592;8.858;2022-08-19T11:40:03;13.17;;;7.70;;
23123;SDS011;11731;48.592;8.858;2022-08-19T11:42:31;7.30;;;6.70;;
23123;SDS011;11731;48.592;8.858;2022-08-19T11:45:16;8.17;;;7.40;;
23123;SDS011;11731;48.592;8.858;2022-08-19T11:47:44;8.87;;;7.90;;
23123;SDS011;11731;48.592;8.858;2022-08-19T11:50:12;8.30;;;7.50;;
23123;SDS011;11731;48.592;8.858;2022-08-19T11:52:39;9.43;;;7.87;;
23123;SDS011;11731;48.592;8.858;2022-08-19T11:55:06;9.23;;;7.40;;
23123;SDS011;11731;48.592;8.858;2022-08-19T11:57:34;8.47;;;7.03;;
23123;SDS011;11731;48.592;8.858;2022-08-19T12:00:02;15.10;;;7.33;;
23123;SDS011;11731;48.592;8.858;2022-08-19T12:02:31;11.30;;;7.73;;
23123;SDS011;11731;48.592;8.858;2022-08-19T12:04:59;9.07;;;7.40;;
23123;SDS011;11731;48.592;8.858;2022-08-19T12:07:27;10.67;;;6.67;;
23123;SDS011;11731;48.592;8.858;2022-08-19T12:09:55;10.30;;;7.67;;
23123;SDS011;11731;48.592;8.858;2022-08-19T12:12:22;9.37;;;7.27;;
23123;SDS011;11731;48.592;8.858;2022-08-19T12:14:49;9.90;;;6.70;;
23123;SDS011;11731;48.592;8.858;2022-08-19T12:17:21;8.77;;;7.20;;
23123;SDS011;11731;48.592;8.858;2022-08-19T12:19:48;7.77;;;7.00;;
23123;SDS011;11731;48.592;8.858;2022-08-19T12:32:36;6.77;;;5.83;;
23123;SDS011;11731;48.592;8.858;2022-08-19T12:35:04;6.70;;;6.07;;
23123;SDS011;11731;48.592;8.858;2022-08-19T12:43:01;6.47;;;5.87;;
23123;SDS011;11731;48.592;8.858;2022-08-19T12:44:11;7.03;;;5.33;;
23123;SDS011;11731;48.592;8.858;2022-08-19T12:46:38;8.13;;;5.53;;
23123;SDS011;11731;48.592;8.858;2022-08-19T12:49:06;6.83;;;6.23;;
23123;SDS011;11731;48.592;8.858;2022-08-19T12:51:33;6.90;;;6.20;;
23123;SDS011;11731;48.592;8.858;2022-08-19T12:57:08;10.37;;;6.30;;
23123;SDS011;11731;48.592;8.858;2022-08-19T12:59:36;9.87;;;6.30;;
23123;SDS011;11731;48.592;8.858;2022-08-19T13:02:04;6.63;;;6.03;;
23123;SDS011;11731;48.592;8.858;2022-08-19T13:04:33;6.93;;;5.87;;
23123;SDS011;11731;48.592;8.858;2022-08-19T13:07:03;7.07;;;6.17;;
23123;SDS011;11731;48.592;8.858;2022-08-19T13:09:30;7.47;;;6.50;;
23123;SDS011;11731;48.592;8.858;2022-08-19T13:11:57;7.20;;;5.80;;
23123;SDS011;11731;48.592;8.858;2022-08-19T13:14:25;6.83;;;5.83;;
23123;SDS011;11731;48.592;8.858;2022-08-19T13:16:52;7.03;;;6.30;;
23123;SDS011;11731;48.592;8.858;2022-08-19T13:19:19;8.60;;;6.80;;
23123;SDS011;11731;48.592;8.858;2022-08-19T13:21:50;8.27;;;7.47;;
23123;SDS011;11731;48.592;8.858;2022-08-19T13:24:18;8.77;;;7.97;;
23123;SDS011;11731;48.592;8.858;2022-08-19T13:26:45;8.27;;;7.47;;
23123;SDS011;11731;48.592;8.858;2022-08-19T13:29:12;8.73;;;7.83;;
23123;SDS011;11731;48.592;8.858;2022-08-19T13:31:57;15.27;;;8.13;;
23123;SDS011;11731;48.592;8.858;2022-08-19T13:34:42;10.10;;;7.70;;
23123;SDS011;11731;48.592;8.858;2022-08-19T13:37:13;8.67;;;7.10;;
23123;SDS011;11731;48.592;8.858;2022-08-19T13:39:39;8.40;;;7.70;;
23123;SDS011;11731;48.592;8.858;2022-08-19T13:42:06;7.83;;;7.13;;
23123;SDS011;11731;48.592;8.858;2022-08-19T13:44:35;10.33;;;8.10;;
23123;SDS011;11731;48.592;8.858;2022-08-19T13:47:03;8.83;;;8.10;;
23123;SDS011;11731;48.592;8.858;2022-08-19T13:49:31;7.93;;;7.23;;
23123;SDS011;11731;48.592;8.858;2022-08-19T13:52:00;8.90;;;8.03;;
23123;SDS011;11731;48.592;8.858;2022-08-19T13:54:29;9.10;;;8.20;;
23123;SDS011;11731;48.592;8.858;2022-08-19T13:56:56;8.97;;;8.17;;
23123;SDS011;11731;48.592;8.858;2022-08-19T13:59:23;8.77;;;8.07;;
23123;SDS011;11731;48.592;8.858;2022-08-19T14:01:50;9.90;;;9.00;;
23123;SDS011;11731;48.592;8.858;2022-08-19T14:04:18;9.37;;;8.57;;
23123;SDS011;11731;48.592;8.858;2022-08-19T14:06:45;8.87;;;7.97;;
23123;SDS011;11731;48.592;8.858;2022-08-19T14:09:12;9.57;;;8.73;;
23123;SDS011;11731;48.592;8.858;2022-08-19T14:11:40;9.93;;;9.03;;
23123;SDS011;11731;48.592;8.858;2022-08-19T14:14:07;9.40;;;8.40;;
23123;SDS011;11731;48.592;8.858;2022-08-19T14:16:33;9.50;;;8.50;;
23123;SDS011;11731;48.592;8.858;2022-08-19T14:19:00;9.43;;;7.97;;
23123;SDS011;11731;48.592;8.858;2022-08-19T14:21:27;11.27;;;8.33;;
23123;SDS011;11731;48.592;8.858;2022-08-19T14:23:54;9.13;;;7.97;;
23123;SDS011;11731;48.592;8.858;2022-08-19T14:26:21;8.60;;;7.90;;
23123;SDS011;11731;48.592;8.858;2022-08-19T14:28:50;9.17;;;8.37;;
23123;SDS011;11731;48.592;8.858;2022-08-19T14:31:17;8.40;;;7.57;;
23123;SDS011;11731;48.592;8.858;2022-08-19T14:33:48;9.20;;;8.40;;
23123;SDS011;11731;48.592;8.858;2022-08-19T14:36:16;10.60;;;8.20;;
23123;SDS011;11731;48.592;8.858;2022-08-19T14:38:43;8.17;;;7.37;;
23123;SDS011;11731;48.592;8.858;2022-08-19T14:41:12;8.57;;;7.80;;
23123;SDS011;11731;48.592;8.858;2022-08-19T14:43:41;8.43;;;7.73;;
23123;SDS011;11731;48.592;8.858;2022-08-19T14:46:12;8.43;;;7.17;;
23123;SDS011;11731;48.592;8.858;2022-08-19T14:48:40;7.37;;;6.60;;
23123;SDS011;11731;48.592;8.858;2022-08-19T14:51:07;8.70;;;7.93;;
23123;SDS011;11731;48.592;8.858;2022-08-19T14:53:34;9.57;;;8.00;;
23123;SDS011;11731;48.592;8.858;2022-08-19T14:56:06;8.40;;;7.70;;
23123;SDS011;11731;48.592;8.858;2022-08-19T14:58:34;9.60;;;8.60;;
23123;SDS011;11731;48.592;8.858;2022-08-19T15:01:01;9.30;;;7.47;;
23123;SDS011;11731;48.592;8.858;2022-08-19T15:03:29;8.33;;;7.63;;
23123;SDS011;11731;48.592;8.858;2022-08-19T15:05:57;8.50;;;7.57;;
23123;SDS011;11731;48.592;8.858;2022-08-19T15:08:27;8.93;;;7.63;;
23123;SDS011;11731;48.592;8.858;2022-08-19T15:10:55;8.93;;;8.13;;
23123;SDS011;11731;48.592;8.858;2022-08-19T15:13:22;8.90;;;8.10;;
23123;SDS011;11731;48.592;8.858;2022-08-19T15:15:50;8.37;;;7.60;;
23123;SDS011;11731;48.592;8.858;2022-08-19T15:18:17;8.50;;;7.70;;
23123;SDS011;11731;48.592;8.858;2022-08-19T15:20:46;9.27;;;8.47;;
23123;SDS011;11731;48.592;8.858;2022-08-19T15:23:14;8.47;;;7.53;;
23123;SDS011;11731;48.592;8.858;2022-08-19T15:25:41;9.20;;;7.33;;
23123;SDS011;11731;48.592;8.858;2022-08-19T15:28:08;8.17;;;7.37;;
23123;SDS011;11731;48.592;8.858;2022-08-19T15:30:36;8.67;;;7.87;;
23123;SDS011;11731;48.592;8.858;2022-08-19T15:33:04;7.70;;;7.00;;
23123;SDS011;11731;48.592;8.858;2022-08-19T15:35:32;7.87;;;7.20;;
23123;SDS011;11731;48.592;8.858;2022-08-19T15:38:00;8.07;;;7.27;;
23123;SDS011;11731;48.592;8.858;2022-08-19T15:40:27;9.77;;;7.23;;
23123;SDS011;11731;48.592;8.858;2022-08-19T15:42:54;9.67;;;6.70;;
23123;SDS011;11731;48.592;8.858;2022-08-19T15:45:22;7.50;;;6.80;;